createdAt,value
2022-12-23T00:00:13.179Z,44.61
2022-12-23T00:01:16.764Z,47.76
2022-12-23T00:02:18.841Z,47.59
2022-12-23T00:03:21.589Z,49.41
2022-12-23T00:04:23.797Z,45.87
2022-12-23T00:05:25.784Z,45.79
2022-12-23T00:06:28.028Z,44.39
2022-12-23T00:07:30.122Z,47.36
2022-12-23T00:08:34.036Z,48.21
2022-12-23T00:09:36.822Z,46.08
2022-12-23T00:10:40.579Z,46.14
2022-12-23T00:11:42.526Z,45.52
2022-12-23T00:12:44.505Z,40.40
2022-12-23T00:13:46.516Z,42.71
2022-12-23T00:14:48.464Z,45.44
2022-12-23T00:15:50.733Z,45.76
2022-12-23T00:16:53.099Z,42.60
2022-12-23T00:17:55.513Z,42.80
2022-12-23T00:18:57.642Z,43.43
2022-12-23T00:20:00.211Z,40.87
2022-12-23T00:21:08.909Z,42.66
2022-12-23T00:22:09.859Z,41.03
2022-12-23T00:23:12.502Z,43.85
2022-12-23T00:24:14.433Z,49.05
2022-12-23T00:25:16.774Z,46.22
2022-12-23T00:26:23.083Z,54.52
2022-12-23T00:27:25.442Z,56.11
2022-12-23T00:28:28.745Z,51.79
2022-12-23T00:29:30.833Z,61.08
2022-12-23T00:30:33.104Z,69.59
2022-12-23T00:31:35.026Z,51.69
2022-12-23T00:32:36.991Z,47.12
2022-12-23T00:33:41.383Z,51.49
2022-12-23T00:34:43.326Z,48.75
2022-12-23T00:35:45.898Z,43.35
2022-12-23T00:36:48.122Z,49.77
2022-12-23T00:37:50.826Z,45.32
2022-12-23T00:38:53.397Z,40.71
2022-12-23T00:39:56.307Z,40.44
2022-12-23T00:40:59.253Z,40.41
2022-12-23T00:42:01.226Z,43.19
2022-12-23T00:43:03.105Z,57.71
2022-12-23T00:44:05.192Z,48.26
2022-12-23T00:45:09.677Z,46.76
2022-12-23T00:46:11.790Z,40.06
2022-12-23T00:47:13.878Z,44.23
2022-12-23T00:48:15.978Z,36.93
2022-12-23T00:49:19.251Z,40.01
2022-12-23T00:50:21.262Z,38.99
2022-12-23T00:51:23.140Z,35.68
2022-12-23T00:52:25.279Z,39.00
2022-12-23T00:53:27.378Z,41.85
2022-12-23T00:54:29.451Z,41.17
2022-12-23T00:55:32.117Z,40.53
2022-12-23T00:56:34.224Z,41.51
2022-12-23T00:57:37.023Z,41.04
2022-12-23T00:58:38.889Z,38.65
2022-12-23T00:59:40.782Z,39.89
2022-12-23T01:00:44.567Z,38.91
2022-12-23T01:01:46.770Z,36.26
2022-12-23T01:02:48.848Z,34.45
2022-12-23T01:03:50.876Z,41.35
2022-12-23T01:04:52.749Z,41.42
2022-12-23T01:05:59.691Z,38.79
2022-12-23T01:07:02.835Z,39.15
2022-12-23T01:08:10.659Z,38.92
2022-12-23T01:09:12.990Z,33.66
2022-12-23T01:10:15.745Z,38.68
2022-12-23T01:11:17.733Z,37.60
2022-12-23T01:12:19.780Z,42.31
2022-12-23T01:13:21.751Z,39.07
2022-12-23T01:14:24.042Z,37.56
2022-12-23T01:15:26.480Z,34.44
2022-12-23T01:16:28.483Z,35.19
2022-12-23T01:17:30.459Z,38.98
2022-12-23T01:18:35.257Z,37.76
2022-12-23T01:19:38.012Z,40.17
2022-12-23T01:20:40.527Z,37.31
2022-12-23T01:21:42.408Z,36.11
2022-12-23T01:22:44.573Z,36.36
2022-12-23T01:23:46.687Z,38.82
2022-12-23T01:24:48.678Z,40.27
2022-12-23T01:27:09.044Z,37.86
2022-12-23T01:28:11.795Z,36.73
2022-12-23T01:29:13.684Z,40.38
2022-12-23T01:30:15.932Z,38.66
2022-12-23T01:31:17.955Z,38.82
2022-12-23T01:32:20.219Z,39.51
2022-12-23T01:33:22.520Z,42.77
2022-12-23T01:34:31.064Z,36.32
2022-12-23T01:35:30.180Z,35.21
2022-12-23T01:36:33.102Z,36.82
2022-12-23T01:37:35.005Z,42.18
2022-12-23T01:38:37.110Z,37.59
2022-12-23T01:39:39.173Z,40.13
2022-12-23T01:40:43.829Z,40.27
2022-12-23T01:41:46.650Z,39.74
2022-12-23T01:42:49.449Z,38.66
2022-12-23T01:43:51.665Z,41.45
2022-12-23T01:45:20.127Z,40.21
2022-12-23T01:46:22.266Z,41.94
2022-12-23T01:47:28.117Z,38.70
2022-12-23T01:48:31.234Z,40.08
2022-12-23T01:49:33.822Z,39.40
2022-12-23T01:50:45.967Z,39.83
2022-12-23T01:51:48.438Z,42.34
2022-12-23T01:53:15.298Z,39.18
2022-12-23T01:54:17.595Z,42.08
2022-12-23T01:55:23.301Z,36.27
2022-12-23T01:56:29.256Z,39.67
2022-12-23T01:57:31.895Z,43.99
2022-12-23T01:58:43.484Z,41.27
2022-12-23T01:59:45.915Z,41.25
2022-12-23T02:00:48.229Z,41.61
2022-12-23T02:01:50.217Z,39.01
2022-12-23T02:02:53.096Z,40.91
2022-12-23T02:04:02.136Z,39.21
2022-12-23T02:05:04.717Z,36.31
2022-12-23T02:06:09.461Z,35.14
2022-12-23T02:07:12.656Z,38.60
2022-12-23T02:08:16.097Z,40.84
2022-12-23T02:09:29.624Z,41.02
2022-12-23T02:10:39.055Z,38.45
2022-12-23T02:11:59.328Z,41.77
2022-12-23T02:13:17.387Z,36.52
2022-12-23T02:14:28.542Z,41.49
2022-12-23T02:15:40.344Z,41.88
2022-12-23T02:16:46.158Z,35.41
2022-12-23T02:17:58.018Z,38.71
2022-12-23T02:19:07.049Z,39.27
2022-12-23T02:20:27.959Z,40.16
2022-12-23T02:21:52.119Z,44.12
2022-12-23T02:23:06.691Z,40.39
2022-12-23T02:24:32.503Z,40.90
2022-12-23T02:26:12.225Z,40.78
2022-12-23T02:27:27.207Z,37.26
2022-12-23T02:29:04.757Z,41.12
2022-12-23T02:30:26.335Z,40.71
2022-12-23T02:31:38.263Z,38.31
2022-12-23T02:33:07.067Z,39.44
2022-12-23T02:34:41.691Z,43.98
2022-12-23T02:36:05.372Z,40.81
2022-12-23T02:37:44.866Z,39.39
2022-12-23T02:39:11.028Z,43.87
2022-12-23T02:40:33.556Z,44.05
2022-12-23T02:41:54.705Z,43.74
2022-12-23T02:43:03.493Z,42.52
2022-12-23T02:44:15.418Z,46.72
2022-12-23T02:45:30.426Z,49.11
2022-12-23T02:46:39.411Z,46.15
2022-12-23T02:47:48.185Z,44.14
2022-12-23T02:49:03.267Z,51.92
2022-12-23T02:50:18.077Z,50.05
2022-12-23T02:51:22.032Z,49.40
2022-12-23T02:52:27.735Z,47.53
2022-12-23T02:53:39.260Z,50.74
2022-12-23T02:55:55.699Z,48.79
2022-12-23T02:57:01.178Z,46.26
2022-12-23T02:58:06.857Z,51.12
2022-12-23T02:59:18.708Z,46.51
2022-12-23T03:00:21.489Z,45.69
2022-12-23T03:01:28.039Z,42.12
2022-12-23T03:02:33.605Z,43.64
2022-12-23T03:03:37.251Z,39.75
2022-12-23T03:04:40.243Z,42.11
2022-12-23T03:08:09.123Z,39.79
2022-12-23T03:09:14.885Z,39.97
2022-12-23T03:10:38.865Z,40.88
2022-12-23T03:11:47.212Z,40.78
2022-12-23T03:12:52.888Z,40.78
2022-12-23T03:14:17.098Z,41.34
2022-12-23T03:15:48.945Z,38.46
2022-12-23T03:18:16.649Z,40.84
2022-12-23T03:22:19.315Z,38.28
2022-12-23T03:23:24.993Z,44.10
2022-12-23T03:24:50.822Z,43.62
2022-12-23T03:26:02.723Z,46.73
2022-12-23T03:27:11.695Z,43.60
2022-12-23T03:28:17.411Z,48.30
2022-12-23T03:29:25.950Z,47.57
2022-12-23T03:30:30.015Z,47.07
2022-12-23T03:31:34.981Z,44.21
2022-12-23T03:32:53.344Z,46.68
2022-12-23T03:34:05.285Z,44.91
2022-12-23T03:35:10.480Z,47.71
2022-12-23T03:36:16.255Z,47.31
2022-12-23T03:37:21.904Z,50.28
2022-12-23T03:38:25.435Z,43.73
2022-12-23T03:39:31.114Z,44.04
2022-12-23T03:40:39.901Z,42.58
2022-12-23T03:41:45.667Z,42.91
2022-12-23T03:42:51.425Z,45.04
2022-12-23T03:46:30.811Z,46.14
2022-12-23T03:47:36.634Z,46.12
2022-12-23T03:51:17.048Z,45.91
2022-12-23T03:52:22.740Z,43.62
2022-12-23T03:53:34.666Z,44.51
2022-12-23T03:54:40.600Z,47.11
2022-12-23T03:55:46.289Z,41.80
2022-12-23T03:56:55.907Z,46.64
2022-12-23T03:58:01.707Z,47.29
2022-12-23T03:59:16.262Z,49.52
2022-12-23T04:00:18.560Z,45.91
2022-12-23T04:01:27.278Z,52.77
2022-12-23T04:02:33.376Z,45.05
2022-12-23T04:03:39.289Z,47.06
2022-12-23T04:04:54.794Z,48.79
2022-12-23T04:06:00.598Z,57.74
2022-12-23T04:07:12.281Z,45.82
2022-12-23T04:08:18.056Z,46.05
2022-12-23T04:09:22.736Z,47.16
2022-12-23T04:10:26.192Z,45.52
2022-12-23T04:11:29.241Z,47.74
2022-12-23T04:12:31.726Z,42.97
2022-12-23T04:13:34.296Z,50.43
2022-12-23T04:14:40.213Z,47.39
2022-12-23T04:15:42.850Z,47.23
2022-12-23T04:16:46.355Z,46.81
2022-12-23T04:17:49.894Z,52.33
2022-12-23T04:18:51.997Z,53.94
2022-12-23T04:19:54.899Z,48.97
2022-12-23T04:20:58.111Z,47.22
2022-12-23T04:22:00.004Z,47.85
2022-12-23T04:23:02.803Z,50.95
2022-12-23T04:24:05.731Z,47.32
2022-12-23T04:25:09.118Z,48.22
2022-12-23T04:26:11.729Z,47.75
2022-12-23T04:27:16.171Z,47.63
2022-12-23T04:28:18.397Z,48.28
2022-12-23T04:29:20.446Z,49.37
2022-12-23T04:30:25.517Z,49.66
2022-12-23T04:31:26.402Z,48.61
2022-12-23T04:32:28.339Z,50.45
2022-12-23T04:33:30.362Z,48.85
2022-12-23T04:34:32.574Z,53.24
2022-12-23T04:35:35.052Z,50.03
2022-12-23T04:36:38.332Z,46.78
2022-12-23T04:37:40.346Z,45.91
2022-12-23T04:38:42.366Z,44.68
2022-12-23T04:39:44.264Z,45.75
2022-12-23T04:40:46.449Z,44.61
2022-12-23T04:41:49.257Z,45.81
2022-12-23T04:42:53.325Z,45.99
2022-12-23T04:43:55.621Z,44.46
2022-12-23T04:44:58.081Z,43.47
2022-12-23T04:46:00.104Z,50.43
2022-12-23T04:47:02.058Z,44.41
2022-12-23T04:48:05.132Z,48.43
2022-12-23T04:49:07.392Z,45.47
2022-12-23T04:50:15.477Z,50.95
2022-12-23T04:51:18.654Z,45.33
2022-12-23T04:52:20.871Z,44.04
2022-12-23T04:53:22.928Z,47.13
2022-12-23T04:54:24.909Z,47.90
2022-12-23T04:55:26.910Z,45.41
2022-12-23T04:56:28.904Z,45.87
2022-12-23T04:57:30.793Z,42.79
2022-12-23T04:58:32.789Z,44.52
2022-12-23T04:59:34.758Z,44.59
2022-12-23T05:00:39.774Z,47.89
2022-12-23T05:01:42.753Z,46.29
2022-12-23T05:02:44.970Z,47.72
2022-12-23T05:03:47.535Z,43.53
2022-12-23T05:04:49.616Z,45.45
2022-12-23T05:05:51.492Z,44.24
2022-12-23T05:06:53.716Z,48.73
2022-12-23T05:08:04.688Z,50.60
2022-12-23T05:09:07.116Z,46.60
2022-12-23T05:10:10.333Z,47.09
2022-12-23T05:11:12.335Z,46.73
2022-12-23T05:12:14.232Z,50.33
2022-12-23T05:13:16.323Z,46.21
2022-12-23T05:14:18.261Z,51.86
2022-12-23T05:15:20.130Z,50.50
2022-12-23T05:16:22.365Z,52.49
2022-12-23T05:17:24.632Z,48.97
2022-12-23T05:18:26.648Z,50.99
2022-12-23T05:19:28.644Z,48.85
2022-12-23T05:20:30.755Z,48.99
2022-12-23T05:21:32.699Z,49.55
2022-12-23T05:22:34.664Z,52.23
2022-12-23T05:23:38.311Z,50.07
2022-12-23T05:24:40.193Z,46.99
2022-12-23T05:25:42.318Z,44.51
2022-12-23T05:26:48.050Z,54.55
2022-12-23T05:27:53.673Z,50.26
2022-12-23T05:28:56.446Z,46.76
2022-12-23T05:29:58.525Z,50.43
2022-12-23T05:32:13.918Z,48.34
2022-12-23T05:33:16.245Z,52.15
2022-12-23T05:34:18.383Z,52.95
2022-12-23T05:35:21.293Z,46.11
2022-12-23T05:36:24.500Z,50.65
2022-12-23T05:37:26.633Z,52.08
2022-12-23T05:38:28.669Z,51.03
2022-12-23T05:39:30.536Z,53.59
2022-12-23T05:40:33.955Z,47.16
2022-12-23T05:41:36.400Z,52.79
2022-12-23T05:42:38.252Z,48.87
2022-12-23T05:43:40.164Z,51.80
2022-12-23T05:44:42.146Z,51.05
2022-12-23T05:45:44.313Z,48.00
2022-12-23T05:46:46.650Z,44.72
2022-12-23T05:47:48.602Z,46.79
2022-12-23T08:59:02.755Z,50.57
2022-12-23T09:00:06.734Z,53.84
2022-12-23T09:01:11.401Z,49.42
2022-12-23T09:02:13.714Z,49.44
2022-12-23T09:03:16.064Z,46.80
2022-12-23T09:04:18.144Z,47.01
2022-12-23T09:05:20.013Z,46.31
2022-12-23T09:08:37.999Z,44.35
2022-12-23T09:09:40.119Z,46.16
2022-12-23T09:10:43.546Z,44.43
2022-12-23T09:11:45.684Z,45.09
2022-12-23T09:12:47.616Z,40.78
2022-12-23T09:13:50.470Z,41.87
2022-12-23T09:14:52.825Z,43.47
2022-12-23T09:15:57.270Z,45.20
2022-12-23T09:17:00.334Z,43.94
2022-12-23T09:18:03.113Z,48.27
2022-12-23T09:19:06.086Z,42.15
2022-12-23T09:20:10.051Z,38.59
2022-12-23T09:21:15.126Z,43.07
2022-12-23T09:22:17.078Z,37.78
2022-12-23T09:23:18.961Z,42.57
2022-12-23T09:24:20.859Z,40.15
2022-12-23T09:25:23.069Z,39.65
2022-12-23T09:26:28.794Z,38.27
2022-12-23T09:27:30.762Z,43.04
2022-12-23T09:28:33.147Z,35.97
2022-12-23T09:29:35.255Z,41.23
2022-12-23T09:30:37.392Z,38.30
2022-12-23T09:31:39.582Z,36.57
2022-12-23T09:32:44.838Z,38.12
2022-12-23T09:33:49.936Z,42.20
2022-12-23T09:34:51.971Z,38.68
2022-12-23T09:35:57.800Z,37.39
2022-12-23T09:36:59.833Z,36.39
2022-12-23T09:38:04.189Z,36.23
2022-12-23T09:39:06.114Z,39.53
2022-12-23T09:40:13.428Z,38.29
2022-12-23T09:41:20.160Z,41.14
2022-12-23T09:42:34.672Z,41.79
2022-12-23T09:46:24.425Z,41.22
2022-12-23T09:47:28.977Z,41.18
2022-12-23T09:48:37.833Z,45.60
2022-12-23T09:49:43.746Z,48.27
2022-12-23T09:50:46.489Z,47.05
2022-12-23T09:51:50.830Z,43.97
2022-12-23T09:53:05.600Z,41.67
2022-12-23T09:54:17.752Z,43.99
2022-12-23T09:55:23.031Z,40.85
2022-12-23T09:56:28.799Z,45.83
2022-12-23T09:57:40.519Z,44.85
2022-12-23T09:59:06.895Z,45.81
2022-12-23T10:00:18.241Z,50.27
2022-12-23T10:01:32.533Z,46.48
2022-12-23T10:02:41.499Z,44.41
2022-12-23T10:04:10.670Z,48.91
2022-12-23T10:05:28.621Z,45.39
2022-12-23T10:06:33.707Z,48.02
2022-12-23T10:07:51.258Z,42.36
2022-12-23T10:08:57.209Z,51.51
2022-12-23T10:10:03.098Z,45.67
2022-12-23T10:11:08.896Z,46.24
2022-12-23T10:12:21.030Z,46.40
2022-12-23T10:13:28.391Z,48.67
2022-12-23T10:14:33.483Z,48.66
2022-12-23T10:15:39.528Z,44.96
2022-12-23T10:16:57.735Z,51.08
2022-12-23T10:18:04.084Z,48.34
2022-12-23T10:19:09.891Z,49.33
2022-12-23T10:20:18.925Z,46.19
2022-12-23T10:21:47.307Z,46.49
2022-12-23T10:22:46.887Z,45.24
2022-12-23T10:23:52.737Z,45.34
2022-12-23T10:24:57.713Z,43.91
2022-12-23T10:26:02.712Z,52.00
2022-12-23T10:27:20.720Z,48.48
2022-12-23T10:28:23.049Z,54.03
2022-12-23T10:29:32.510Z,47.65
2022-12-23T10:31:54.284Z,48.66
2022-12-23T10:33:21.485Z,45.34
2022-12-23T10:36:53.857Z,47.98
2022-12-23T10:38:02.711Z,46.93
2022-12-23T10:39:25.345Z,46.86
2022-12-23T10:40:48.003Z,44.34
2022-12-23T10:42:18.170Z,47.61
2022-12-23T10:43:30.087Z,42.19
2022-12-23T10:44:58.717Z,42.84
2022-12-23T10:46:10.510Z,47.56
2022-12-23T10:47:50.149Z,45.23
2022-12-23T10:49:05.121Z,53.19
2022-12-23T10:50:29.242Z,48.93
2022-12-23T10:51:46.887Z,49.44
2022-12-23T10:52:52.295Z,45.49
2022-12-23T10:54:10.190Z,50.86
2022-12-23T10:55:31.347Z,45.38
2022-12-23T10:56:30.434Z,52.80
2022-12-23T10:57:33.397Z,50.73
2022-12-23T10:58:42.554Z,54.72
2022-12-23T10:59:44.987Z,61.56
2022-12-23T11:00:51.780Z,52.99
2022-12-23T11:02:13.610Z,52.12
2022-12-23T11:03:28.812Z,50.03
2022-12-23T11:04:40.858Z,49.44
2022-12-23T11:05:44.925Z,49.51
2022-12-23T11:06:55.881Z,53.14
2022-12-23T11:07:56.025Z,52.46
2022-12-23T11:09:01.624Z,54.24
2022-12-23T11:10:19.495Z,49.61
2022-12-23T11:11:21.766Z,53.41
2022-12-23T11:12:26.640Z,54.94
2022-12-23T11:13:38.465Z,52.57
2022-12-23T11:14:55.457Z,47.10
2022-12-23T11:16:16.529Z,50.12
2022-12-23T11:17:30.294Z,52.04
2022-12-23T11:18:35.100Z,49.05
2022-12-23T11:19:36.098Z,50.95
2022-12-23T11:20:44.309Z,50.30
2022-12-23T11:21:56.143Z,45.42
2022-12-23T11:23:00.694Z,52.00
2022-12-23T11:24:20.568Z,52.04
2022-12-23T11:25:42.991Z,57.60
2022-12-23T11:26:49.409Z,52.22
2022-12-23T11:28:16.665Z,53.43
2022-12-23T11:29:25.362Z,47.06
2022-12-23T11:30:29.299Z,48.32
2022-12-23T11:31:33.494Z,50.08
2022-12-23T11:32:37.019Z,47.18
2022-12-23T11:34:00.947Z,51.61
2022-12-23T11:35:03.548Z,49.37
2022-12-23T11:36:16.629Z,51.03
2022-12-23T11:37:30.874Z,48.76
2022-12-23T11:38:36.523Z,49.01
2022-12-23T11:39:40.903Z,54.32
2022-12-23T11:40:46.030Z,48.23
2022-12-23T11:41:51.497Z,50.95
2022-12-23T11:45:27.248Z,53.82
2022-12-23T11:46:32.867Z,50.19
2022-12-23T11:47:39.612Z,55.13
2022-12-23T11:48:42.047Z,50.73
2022-12-23T11:49:50.517Z,51.75
2022-12-23T11:53:24.282Z,51.78
2022-12-23T11:54:26.855Z,51.38
2022-12-23T11:55:31.399Z,46.99
2022-12-23T11:56:39.501Z,50.82
2022-12-23T11:57:47.977Z,52.00
2022-12-23T11:59:03.005Z,48.15
2022-12-23T12:00:08.688Z,54.57
2022-12-23T12:01:19.962Z,49.93
2022-12-23T12:02:38.059Z,53.90
2022-12-23T12:03:46.489Z,50.02
2022-12-23T12:04:52.234Z,51.46
2022-12-23T12:05:58.288Z,54.76
2022-12-23T12:07:03.157Z,54.82
2022-12-23T12:08:08.265Z,53.43
2022-12-23T12:09:12.745Z,52.47
2022-12-23T12:10:22.396Z,52.31
2022-12-23T12:11:27.421Z,48.17
2022-12-23T12:12:30.269Z,51.19
2022-12-23T12:13:38.882Z,50.44
2022-12-23T12:14:50.677Z,46.99
2022-12-23T12:15:57.248Z,48.22
2022-12-23T12:17:05.949Z,50.52
2022-12-23T12:18:11.759Z,56.70
2022-12-23T12:19:34.536Z,49.70
2022-12-23T12:20:40.299Z,48.57
2022-12-23T12:21:45.244Z,51.75
2022-12-23T12:22:53.779Z,50.51
2022-12-23T12:24:18.509Z,51.12
2022-12-23T12:27:38.504Z,52.82
2022-12-23T12:28:44.145Z,44.62
2022-12-23T12:29:53.952Z,51.42
2022-12-23T12:31:22.804Z,47.06
2022-12-23T12:32:28.771Z,49.25
2022-12-23T12:33:34.594Z,48.81
2022-12-23T12:37:08.314Z,48.23
2022-12-23T12:38:26.318Z,52.61
2022-12-23T12:39:32.097Z,51.49
2022-12-23T12:40:44.000Z,43.93
2022-12-23T12:41:49.673Z,46.16
2022-12-23T12:43:00.956Z,50.41
2022-12-23T12:44:25.696Z,51.78
2022-12-23T12:45:43.678Z,54.19
2022-12-23T12:47:21.885Z,51.68
2022-12-23T12:48:21.130Z,57.98
2022-12-23T12:52:04.931Z,54.34
2022-12-23T12:53:14.096Z,49.86
2022-12-23T12:54:22.666Z,49.87
2022-12-23T12:55:31.359Z,57.44
2022-12-23T12:56:52.542Z,52.75
2022-12-23T12:57:54.824Z,51.74
2022-12-23T12:58:57.843Z,52.71
2022-12-23T13:00:06.238Z,54.77
2022-12-23T13:01:22.904Z,52.58
2022-12-23T13:02:37.607Z,49.88
2022-12-23T13:04:01.115Z,51.25
2022-12-23T13:05:19.219Z,61.28
2022-12-23T13:06:46.668Z,72.28
2022-12-23T13:08:26.247Z,64.23
2022-12-23T13:09:47.262Z,62.22
2022-12-23T13:11:03.347Z,62.38
2022-12-23T13:12:24.274Z,66.24
2022-12-23T13:15:12.911Z,63.75
2022-12-23T13:16:35.357Z,56.31
2022-12-23T13:17:53.143Z,63.50
2022-12-23T13:19:11.237Z,59.22
2022-12-23T13:23:42.263Z,61.73
2022-12-23T13:24:34.801Z,62.46
2022-12-23T13:25:40.479Z,58.01
2022-12-23T13:27:05.940Z,64.31
2022-12-23T13:28:29.006Z,66.91
2022-12-23T13:29:58.325Z,77.43
2022-12-23T13:31:06.673Z,82.34
2022-12-23T13:32:41.699Z,83.44
2022-12-23T13:35:23.805Z,69.98
2022-12-23T13:36:41.548Z,73.79
2022-12-23T13:37:59.332Z,69.55
2022-12-23T13:39:05.071Z,70.54
2022-12-23T13:40:23.276Z,73.12
2022-12-23T13:41:38.245Z,63.06
2022-12-23T13:42:43.902Z,70.26
2022-12-23T13:43:49.602Z,68.06
2022-12-23T13:44:52.737Z,66.10
2022-12-23T13:45:58.159Z,64.11
2022-12-23T13:47:06.881Z,68.40
2022-12-23T13:48:28.026Z,69.93
2022-12-23T13:49:58.528Z,68.65
2022-12-23T13:51:22.962Z,66.70
2022-12-23T13:52:40.721Z,73.56
2022-12-23T13:54:04.207Z,66.05
2022-12-23T13:55:23.746Z,65.98
2022-12-23T13:56:41.925Z,67.83
2022-12-23T13:58:03.826Z,66.18
2022-12-23T13:59:11.256Z,68.84
2022-12-23T14:00:20.085Z,64.42
2022-12-23T16:50:21.226Z,88.86
2022-12-23T16:51:26.037Z,90.66
2022-12-23T16:52:28.058Z,90.84
2022-12-23T16:53:29.955Z,88.19
2022-12-23T16:54:32.219Z,91.29
2022-12-23T16:55:34.260Z,91.11
2022-12-23T16:56:37.305Z,87.56
2022-12-23T16:57:39.454Z,82.16
2022-12-23T16:58:41.830Z,87.27
2022-12-23T16:59:43.728Z,78.20
2022-12-23T17:00:46.665Z,81.05
2022-12-23T17:01:50.121Z,82.34
2022-12-23T17:02:52.392Z,76.67
2022-12-23T17:03:54.358Z,76.76
2022-12-23T17:04:56.234Z,78.15
2022-12-23T17:05:58.436Z,72.03
2022-12-23T17:07:01.097Z,79.08
2022-12-23T17:08:03.297Z,75.58
2022-12-23T17:09:06.368Z,73.83
2022-12-23T17:10:09.731Z,75.17
2022-12-23T17:11:17.299Z,69.88
2022-12-23T17:12:19.724Z,78.52
2022-12-23T17:13:22.167Z,80.61
2022-12-23T17:14:24.971Z,80.64
2022-12-23T17:15:27.147Z,81.49
2022-12-23T17:16:29.292Z,76.71
2022-12-23T17:17:33.406Z,73.98
2022-12-23T17:18:35.472Z,78.83
2022-12-23T17:19:37.654Z,78.33
2022-12-23T17:20:40.911Z,76.79
2022-12-23T17:21:45.277Z,75.21
2022-12-23T17:22:50.989Z,81.34
2022-12-23T17:23:54.507Z,77.64
2022-12-23T17:24:56.499Z,74.88
2022-12-23T17:25:59.227Z,79.51
2022-12-23T17:27:01.885Z,82.24
2022-12-23T17:28:07.645Z,79.74
2022-12-23T17:29:11.389Z,76.97
2022-12-23T17:30:15.799Z,74.45
2022-12-23T17:31:26.576Z,73.54
2022-12-23T17:32:24.976Z,77.09
2022-12-23T17:33:29.640Z,74.93
2022-12-23T17:34:31.561Z,71.45
2022-12-23T17:35:33.441Z,73.30
2022-12-23T17:36:35.611Z,70.30
2022-12-23T17:37:38.617Z,70.07
2022-12-23T17:38:40.648Z,73.33
2022-12-23T17:39:43.748Z,70.51
2022-12-23T17:40:47.560Z,75.18
2022-12-23T17:41:51.052Z,76.91
2022-12-23T17:42:52.965Z,79.33
2022-12-23T17:43:56.374Z,86.29
2022-12-23T17:44:58.276Z,84.13
2022-12-23T17:46:00.222Z,79.35
2022-12-23T17:47:06.144Z,83.44
2022-12-23T17:48:16.305Z,83.75
2022-12-23T17:49:14.515Z,84.26
2022-12-23T17:50:17.369Z,74.02
2022-12-23T17:51:22.066Z,80.40
2022-12-23T17:52:25.060Z,76.57
2022-12-23T17:53:27.085Z,76.84
2022-12-23T17:54:29.097Z,72.13
2022-12-23T17:55:31.468Z,71.63
2022-12-23T17:56:33.556Z,74.57
2022-12-23T17:57:35.525Z,78.53
2022-12-23T17:58:37.520Z,77.71
2022-12-23T17:59:39.454Z,78.37
2022-12-23T18:00:41.786Z,69.40
2022-12-23T18:01:44.081Z,72.06
2022-12-23T18:02:46.791Z,75.33
2022-12-23T18:03:49.490Z,72.26
2022-12-23T18:04:51.902Z,75.90
2022-12-23T18:06:01.124Z,79.38
2022-12-23T18:06:57.742Z,76.95
2022-12-23T18:08:01.528Z,74.58
2022-12-23T18:09:03.588Z,76.29
2022-12-23T18:10:08.814Z,73.55
2022-12-23T18:13:32.941Z,68.60
2022-12-23T18:14:35.002Z,70.84
2022-12-23T18:15:41.083Z,75.91
2022-12-23T18:16:43.256Z,73.78
2022-12-23T18:17:45.441Z,73.24
2022-12-23T18:18:47.565Z,72.73
2022-12-23T18:19:49.756Z,74.67
2022-12-23T18:20:53.932Z,71.67
2022-12-23T18:21:56.219Z,73.74
2022-12-23T18:22:59.204Z,72.26
2022-12-23T18:24:01.259Z,73.66
2022-12-23T18:25:04.073Z,75.32
2022-12-23T18:26:06.463Z,70.32
2022-12-23T18:27:17.560Z,72.19
2022-12-23T18:28:20.059Z,74.63
2022-12-23T18:29:21.954Z,73.25
2022-12-23T18:30:23.997Z,71.69
2022-12-23T18:31:25.932Z,77.58
2022-12-23T18:32:28.677Z,75.20
2022-12-23T18:33:30.568Z,74.89
2022-12-23T18:34:32.540Z,75.43
2022-12-23T18:35:38.739Z,79.49
2022-12-23T18:36:41.181Z,78.71
2022-12-23T18:37:43.117Z,76.77
2022-12-23T18:38:45.151Z,77.41
2022-12-23T18:39:48.163Z,76.86
2022-12-23T18:40:50.607Z,74.57
2022-12-23T18:41:52.592Z,77.62
2022-12-23T18:42:54.673Z,73.13
2022-12-23T18:43:56.557Z,79.06
2022-12-23T18:44:58.439Z,72.29
2022-12-23T18:46:00.564Z,81.88
2022-12-23T18:47:02.635Z,69.97
2022-12-23T18:48:06.715Z,79.73
2022-12-23T18:49:08.760Z,73.44
2022-12-23T18:50:10.818Z,73.31
2022-12-23T18:51:18.460Z,74.18
2022-12-23T18:52:20.530Z,77.68
2022-12-23T18:53:25.188Z,74.31
2022-12-23T18:54:27.352Z,71.24
2022-12-23T18:55:29.825Z,69.32
2022-12-23T18:56:31.999Z,69.89
2022-12-23T18:57:33.991Z,73.52
2022-12-23T18:58:36.013Z,77.10
2022-12-23T18:59:37.925Z,81.65
2022-12-23T19:00:40.758Z,74.13
2022-12-23T19:01:44.135Z,70.40
2022-12-23T19:02:48.134Z,63.95
2022-12-23T19:03:50.216Z,71.95
2022-12-23T19:04:52.101Z,72.49
2022-12-23T19:05:56.124Z,74.53
2022-12-23T19:06:58.789Z,71.06
2022-12-23T19:08:00.706Z,73.43
2022-12-23T19:09:03.316Z,74.28
2022-12-23T19:10:09.320Z,71.96
2022-12-23T19:11:13.703Z,70.92
2022-12-23T19:12:15.726Z,64.75
2022-12-23T19:13:18.800Z,67.92
2022-12-23T19:14:20.969Z,71.45
2022-12-23T19:15:23.355Z,72.39
2022-12-23T19:16:25.728Z,68.61
2022-12-23T19:17:28.473Z,75.39
2022-12-23T19:18:30.469Z,70.89
2022-12-23T19:19:32.576Z,73.63
2022-12-23T19:20:34.824Z,74.75
2022-12-23T19:21:36.801Z,77.12
2022-12-23T19:22:39.900Z,75.68
2022-12-23T19:23:42.698Z,72.48
2022-12-23T19:25:03.851Z,81.64
2022-12-23T19:25:54.883Z,76.05
2022-12-23T19:26:52.639Z,81.42
2022-12-23T19:27:56.036Z,80.58
2022-12-23T19:28:58.030Z,82.19
2022-12-23T19:29:59.895Z,83.70
2022-12-23T19:31:10.838Z,79.10
2022-12-23T19:32:12.902Z,86.46
2022-12-23T19:33:15.146Z,88.48
2022-12-23T19:34:17.814Z,87.15
2022-12-23T19:35:19.810Z,82.69
2022-12-23T19:36:22.531Z,74.16
2022-12-23T19:37:25.631Z,81.04
2022-12-23T19:38:27.496Z,78.52
2022-12-23T19:39:29.483Z,79.23
2022-12-23T19:40:31.698Z,80.44
2022-12-23T19:41:33.580Z,79.61
2022-12-23T19:42:39.576Z,74.75
2022-12-23T19:43:44.214Z,72.89
2022-12-23T19:44:46.118Z,85.02
2022-12-23T19:45:56.710Z,78.53
2022-12-23T19:46:58.901Z,70.96
2022-12-23T19:48:01.563Z,73.73
2022-12-23T19:49:04.293Z,74.37
2022-12-23T19:50:08.271Z,69.47
2022-12-23T19:51:12.599Z,69.21
2022-12-23T19:52:14.519Z,77.87
2022-12-23T19:53:16.384Z,72.37
2022-12-23T19:54:18.861Z,75.53
2022-12-23T19:55:21.004Z,75.41
2022-12-23T19:56:23.109Z,69.91
2022-12-23T19:57:25.396Z,76.89
2022-12-23T19:58:30.064Z,71.96
2022-12-23T19:59:32.545Z,75.66
2022-12-23T20:00:34.559Z,76.95
2022-12-23T20:01:36.852Z,75.03
2022-12-23T20:02:39.498Z,75.86
2022-12-23T20:03:42.556Z,76.11
2022-12-23T20:04:44.942Z,79.41
2022-12-23T20:05:49.602Z,74.41
2022-12-23T20:06:51.787Z,73.84
2022-12-23T20:07:53.678Z,71.17
2022-12-23T20:09:00.611Z,74.25
2022-12-23T20:10:00.408Z,70.44
2022-12-23T20:11:04.567Z,73.13
2022-12-23T20:12:06.991Z,76.04
2022-12-23T20:13:09.996Z,75.51
2022-12-23T20:14:14.959Z,76.33
2022-12-23T20:15:17.279Z,73.21
2022-12-23T20:16:21.328Z,73.73
2022-12-23T20:17:23.400Z,71.74
2022-12-23T20:18:25.373Z,74.72
2022-12-23T20:19:27.476Z,77.35
2022-12-23T20:20:30.682Z,76.20
2022-12-23T20:21:34.002Z,75.62
2022-12-23T20:22:36.113Z,70.32
2022-12-23T20:23:37.978Z,72.59
2022-12-23T20:24:40.175Z,73.55
2022-12-23T20:25:42.429Z,69.13
2022-12-23T20:26:44.716Z,73.42
2022-12-23T20:27:46.607Z,71.38
2022-12-23T20:28:50.620Z,71.33
2022-12-23T20:29:54.381Z,70.89
2022-12-23T20:31:07.711Z,69.42
2022-12-23T20:32:09.925Z,75.74
2022-12-23T20:33:15.134Z,73.83
2022-12-23T20:34:17.139Z,79.58
2022-12-23T20:35:19.729Z,78.53
2022-12-23T20:36:25.048Z,74.55
2022-12-23T20:37:27.081Z,71.51
2022-12-23T20:38:29.429Z,71.99
2022-12-23T20:39:31.401Z,67.06
2022-12-23T20:40:33.515Z,70.68
2022-12-23T20:41:35.505Z,65.47
2022-12-23T20:42:37.627Z,69.39
2022-12-23T20:43:40.149Z,69.25
2022-12-23T20:44:42.651Z,74.89
2022-12-23T20:45:44.663Z,73.64
2022-12-23T20:46:46.863Z,75.81
2022-12-23T20:47:50.675Z,81.20
2022-12-23T20:48:53.422Z,69.93
2022-12-23T20:49:55.563Z,69.27
2022-12-23T20:51:03.716Z,76.11
2022-12-23T20:52:05.874Z,72.81
2022-12-23T20:53:08.860Z,72.17
2022-12-23T20:54:11.575Z,72.15
2022-12-23T20:55:15.316Z,65.12
2022-12-23T20:56:18.268Z,71.56
2022-12-23T20:57:20.170Z,72.20
2022-12-23T20:58:22.148Z,68.20